Time;durP1;ratioP1;P1;durP2;ratioP2;P2;SDS_P1;SDS_P2;PMS_P1;PMS_P2;Temp;Humidity;BMP_temperature;BMP_pressure;BME280_temperature;BME280_humidity;BME280_pressure;Samples;Min_cycle;Max_cycle;Signal;HPM_P1;HPM_P2
2023/06/08 09:04:16;;;;;;;12.23;5.97;;;;;;;;;;6040192;22;20339;-81
2023/06/08 09:06:48;;;;;;;6.68;5.00;;;;;;;;;;5020601;28;20030;-81
2023/06/08 09:09:14;;;;;;;5.65;5.07;;;;;;;;;;5027473;28;20022;-82
2023/06/08 09:11:59;;;;;;;6.15;5.50;;;;;;;;;;5033540;28;20036;-81
2023/06/08 09:14:25;;;;;;;9.05;5.65;;;;;;;;;;5020181;28;20033;-87
2023/06/08 09:16:51;;;;;;;6.55;5.80;;;;;;;;;;5023638;28;20033;-92
2023/06/08 09:19:16;;;;;;;5.85;5.35;;;;;;;;;;5000046;28;20033;-93
2023/06/08 09:21:43;;;;;;;8.20;6.22;;;;;;;;;;4999630;28;20234;-91
2023/06/08 09:24:20;;;;;;;6.75;6.15;;;;;;;;;;5025613;28;20472;-93
2023/06/08 09:26:56;;;;;;;8.05;5.93;;;;;;;;;;4998117;28;20053;-92
2023/06/08 09:29:41;;;;;;;7.20;5.75;;;;;;;;;;4997088;28;20037;-87
2023/06/08 09:32:09;;;;;;;6.53;5.60;;;;;;;;;;5026085;28;20104;-87
2023/06/08 09:35:13;;;;;;;6.40;5.80;;;;;;;;;;5025005;28;20380;-87
2023/06/08 09:37:39;;;;;;;7.30;5.93;;;;;;;;;;5024377;28;20048;-90
2023/06/08 09:40:08;;;;;;;9.45;7.10;;;;;;;;;;5014714;28;20018;-90
2023/06/08 09:42:44;;;;;;;6.35;5.57;;;;;;;;;;4997274;28;20419;-91
2023/06/08 09:45:14;;;;;;;6.28;5.68;;;;;;;;;;5030616;28;20056;-92
2023/06/08 09:47:40;;;;;;;6.65;6.05;;;;;;;;;;5002820;28;20117;-92
2023/06/08 09:50:08;;;;;;;6.82;6.10;;;;;;;;;;5001795;28;20061;-93
2023/06/08 09:52:35;;;;;;;6.68;5.82;;;;;;;;;;4987275;28;20388;-92
2023/06/08 09:55:02;;;;;;;7.57;6.30;;;;;;;;;;5000243;28;20029;-91
2023/06/08 09:57:30;;;;;;;7.05;6.18;;;;;;;;;;4996806;28;20057;-92
2023/06/08 10:00:21;;;;;;;6.57;5.93;;;;;;;;;;4998056;28;20026;-90
2023/06/08 10:03:14;;;;;;;6.85;5.97;;;;;;;;;;5017360;28;20030;-95
2023/06/08 10:05:46;;;;;;;7.40;6.20;;;;;;;;;;4995675;28;20046;-93
2023/06/08 10:08:21;;;;;;;7.28;6.10;;;;;;;;;;4983114;28;20037;-89
2023/06/08 10:10:47;;;;;;;7.05;6.35;;;;;;;;;;5014811;28;20084;-93
2023/06/08 10:13:14;;;;;;;7.63;5.80;;;;;;;;;;4997202;28;20117;-91
2023/06/08 10:15:40;;;;;;;6.25;5.65;;;;;;;;;;4997438;28;20030;-90
2023/06/08 10:18:07;;;;;;;6.40;5.80;;;;;;;;;;4998242;28;20041;-96
2023/06/08 10:20:33;;;;;;;6.15;5.55;;;;;;;;;;4997665;28;20034;-91
2023/06/08 10:22:59;;;;;;;5.45;5.00;;;;;;;;;;5008696;23;20052;-89
2023/06/08 10:25:30;;;;;;;5.60;5.10;;;;;;;;;;4995756;28;20056;-93
2023/06/08 10:28:06;;;;;;;5.68;4.95;;;;;;;;;;4994391;28;20026;-93
2023/06/08 10:30:39;;;;;;;5.18;4.68;;;;;;;;;;4994982;28;20022;-87
2023/06/08 10:33:15;;;;;;;6.03;5.53;;;;;;;;;;4995575;28;20105;-89
2023/06/08 10:36:01;;;;;;;5.45;4.45;;;;;;;;;;4994763;28;20038;-87
2023/06/08 10:38:26;;;;;;;4.72;4.25;;;;;;;;;;4995148;28;20085;-87
2023/06/08 10:40:53;;;;;;;5.80;5.22;;;;;;;;;;4994788;28;20033;-93
2023/06/08 10:43:26;;;;;;;7.25;4.55;;;;;;;;;;4994994;28;20102;-88
2023/06/08 10:45:51;;;;;;;5.32;4.82;;;;;;;;;;4994608;28;20026;-89
2023/06/08 10:48:18;;;;;;;5.07;4.57;;;;;;;;;;4994847;28;20031;-91
2023/06/08 10:50:44;;;;;;;4.78;4.38;;;;;;;;;;4996697;28;20053;-95
2023/06/08 10:53:10;;;;;;;5.43;4.93;;;;;;;;;;5023188;23;20034;-95
2023/06/08 10:55:37;;;;;;;6.00;4.68;;;;;;;;;;4991793;28;20049;-95
2023/06/08 10:58:19;;;;;;;4.80;4.40;;;;;;;;;;4983447;28;20065;-95
2023/06/08 11:01:03;;;;;;;4.78;4.35;;;;;;;;;;4995842;28;20042;-96
2023/06/08 11:03:43;;;;;;;4.82;4.40;;;;;;;;;;5013957;28;20202;-96
2023/06/08 11:06:13;;;;;;;4.53;4.13;;;;;;;;;;4986038;28;20018;-96
2023/06/08 11:08:39;;;;;;;5.25;4.85;;;;;;;;;;4992235;28;20026;-96
2023/06/08 11:11:05;;;;;;;5.57;4.93;;;;;;;;;;4984069;28;20060;-94
2023/06/08 11:13:31;;;;;;;4.60;4.20;;;;;;;;;;5014146;28;20026;-96
2023/06/08 11:15:56;;;;;;;5.57;4.95;;;;;;;;;;4989879;28;20090;-96
2023/06/08 11:18:23;;;;;;;4.90;4.40;;;;;;;;;;4979606;28;20377;-96
2023/06/08 11:20:50;;;;;;;4.93;4.53;;;;;;;;;;4999782;28;20050;-95
2023/06/08 11:23:16;;;;;;;4.95;4.45;;;;;;;;;;4980329;28;20030;-95
2023/06/08 11:25:44;;;;;;;5.18;4.70;;;;;;;;;;4981491;28;20117;-95
2023/06/08 11:28:11;;;;;;;5.07;4.47;;;;;;;;;;4970436;28;20034;-94
2023/06/08 11:30:37;;;;;;;5.25;4.85;;;;;;;;;;4979053;28;20034;-94
2023/06/08 11:33:07;;;;;;;6.32;4.78;;;;;;;;;;4978646;28;20054;-90
2023/06/08 11:35:33;;;;;;;5.45;4.95;;;;;;;;;;4976929;28;20117;-88
2023/06/08 11:37:59;;;;;;;5.32;4.82;;;;;;;;;;4994881;28;20025;-90
2023/06/08 11:40:25;;;;;;;6.65;4.65;;;;;;;;;;4976739;28;20034;-91
2023/06/08 11:42:52;;;;;;;5.15;4.70;;;;;;;;;;4977110;28;20397;-92
2023/06/08 11:45:18;;;;;;;5.72;5.22;;;;;;;;;;4977076;28;20026;-89
2023/06/08 11:47:45;;;;;;;5.65;5.07;;;;;;;;;;4994575;28;20041;-89
2023/06/08 15:52:32;;;;;;;7.37;6.67;;;;;;;;;;4959910;28;20058;-86
2023/06/08 15:54:58;;;;;;;6.75;6.13;;;;;;;;;;5013607;28;20034;-86
2023/06/08 19:26:55;;;;;;;7.55;5.68;;;;;;;;;;5255973;22;20050;-93
2023/06/08 19:29:23;;;;;;;7.25;5.68;;;;;;;;;;5014969;28;20037;-93
2023/06/08 19:31:57;;;;;;;6.53;5.43;;;;;;;;;;5005289;28;20040;-94
2023/06/08 19:34:28;;;;;;;7.10;3.95;;;;;;;;;;4998620;28;20060;-93
2023/06/08 19:36:58;;;;;;;6.57;4.10;;;;;;;;;;5015334;28;20041;-93
2023/06/08 19:39:24;;;;;;;5.78;4.28;;;;;;;;;;5009457;28;20026;-94
2023/06/08 19:41:52;;;;;;;5.30;3.70;;;;;;;;;;5017465;28;20218;-93
2023/06/08 19:44:22;;;;;;;4.28;3.88;;;;;;;;;;5017362;28;20067;-95
2023/06/08 19:46:48;;;;;;;4.50;4.10;;;;;;;;;;5018720;28;20022;-95
2023/06/08 19:49:18;;;;;;;6.28;4.10;;;;;;;;;;5000846;28;20022;-92
2023/06/08 19:51:48;;;;;;;4.53;4.13;;;;;;;;;;5001452;28;20037;-93
2023/06/08 19:54:14;;;;;;;5.40;4.20;;;;;;;;;;5013786;28;20056;-93
2023/06/08 19:56:44;;;;;;;5.03;4.50;;;;;;;;;;5020184;28;20030;-94
2023/06/08 19:59:11;;;;;;;6.03;4.90;;;;;;;;;;5020391;28;20033;-92
2023/06/08 20:01:36;;;;;;;6.45;4.70;;;;;;;;;;5020369;28;20029;-92
2023/06/08 20:04:02;;;;;;;6.53;4.75;;;;;;;;;;5020588;28;20476;-94
2023/06/08 20:06:28;;;;;;;5.45;4.47;;;;;;;;;;5002549;28;20026;-94
2023/06/08 20:08:54;;;;;;;6.07;4.70;;;;;;;;;;5004132;28;20022;-94
2023/06/08 20:11:21;;;;;;;7.28;5.40;;;;;;;;;;5004886;28;20026;-94
2023/06/08 20:13:47;;;;;;;7.60;5.07;;;;;;;;;;5009873;28;20061;-93
2023/06/08 20:16:12;;;;;;;5.82;4.72;;;;;;;;;;5000468;28;20022;-93
2023/06/08 20:18:37;;;;;;;4.93;4.05;;;;;;;;;;5002711;28;20053;-96
2023/06/08 20:21:03;;;;;;;4.45;4.05;;;;;;;;;;5001663;28;20026;-96
2023/06/08 20:23:29;;;;;;;6.93;4.38;;;;;;;;;;5002292;28;20029;-95
2023/06/08 20:25:55;;;;;;;4.95;4.38;;;;;;;;;;5001718;28;20046;-96
2023/06/08 20:28:22;;;;;;;4.75;3.80;;;;;;;;;;5006870;28;20591;-96
2023/06/08 20:30:47;;;;;;;4.40;4.00;;;;;;;;;;5005864;28;20034;-96
2023/06/08 20:33:13;;;;;;;4.28;3.88;;;;;;;;;;5009910;28;20026;-96
2023/06/08 20:35:41;;;;;;;4.90;3.80;;;;;;;;;;5039984;23;20060;-94
2023/06/08 20:38:23;;;;;;;4.25;3.85;;;;;;;;;;4957559;29;20047;-95
2023/06/08 20:41:08;;;;;;;5.38;4.30;;;;;;;;;;4951644;29;20032;-94
2023/06/08 20:43:36;;;;;;;4.70;4.30;;;;;;;;;;4938908;29;20056;-96
2023/06/08 20:46:19;;;;;;;5.00;4.03;;;;;;;;;;4941690;29;20020;-96
2023/06/08 20:49:11;;;;;;;6.63;3.72;;;;;;;;;;4980144;23;20065;-96
2023/06/08 20:51:55;;;;;;;3.88;3.58;;;;;;;;;;5073434;22;20118;-95
2023/06/08 20:54:21;;;;;;;4.82;3.58;;;;;;;;;;5012319;28;20049;-95
2023/06/08 20:57:12;;;;;;;5.38;4.13;;;;;;;;;;5014850;28;20022;-95
2023/06/08 20:59:38;;;;;;;4.60;3.88;;;;;;;;;;5037836;28;20062;-96
2023/06/08 21:02:24;;;;;;;4.47;3.55;;;;;;;;;;5022122;28;20049;-96
2023/06/08 21:04:53;;;;;;;4.30;3.90;;;;;;;;;;5020423;28;20048;-96
2023/06/08 21:07:21;;;;;;;3.95;3.65;;;;;;;;;;5037229;28;20030;-96
2023/06/08 21:12:59;;;;;;;4.72;3.95;;;;;;;;;;5127032;22;20092;-96
2023/06/08 21:15:27;;;;;;;4.85;3.38;;;;;;;;;;5038197;28;20045;-96
2023/06/08 21:18:40;;;;;;;3.95;3.55;;;;;;;;;;5014709;28;20001;-96
2023/06/08 21:21:26;;;;;;;4.43;3.70;;;;;;;;;;5018240;28;20096;-96
2023/06/08 21:23:52;;;;;;;4.03;3.63;;;;;;;;;;4987840;28;20022;-96
2023/06/08 21:26:18;;;;;;;4.43;3.60;;;;;;;;;;4999935;28;20098;-96
2023/06/08 21:28:45;;;;;;;3.83;3.30;;;;;;;;;;4996707;28;20062;-96
2023/06/08 21:31:14;;;;;;;4.20;3.33;;;;;;;;;;4999933;28;20065;-96
2023/06/08 21:38:51;;;;;;;3.53;3.22;;;;;;;;;;5492547;22;20228;-96
2023/06/08 21:41:17;;;;;;;3.90;3.60;;;;;;;;;;5008081;28;20038;-96
2023/06/08 21:43:43;;;;;;;3.50;3.08;;;;;;;;;;5010640;28;20061;-96
2023/06/08 21:46:13;;;;;;;3.92;3.53;;;;;;;;;;5047087;22;20030;-96
2023/06/08 21:48:39;;;;;;;5.32;3.33;;;;;;;;;;5004156;28;20057;-96
2023/06/08 21:51:04;;;;;;;5.25;3.80;;;;;;;;;;5003592;28;20038;-96
